sensor_id;sensor_type;location;lat;lon;timestamp;temperature;humidity
43894;DHT22;29556;50.846;4.442;2022-12-10T00:00:03;3.70;80.60
43894;DHT22;29556;50.846;4.442;2022-12-10T00:02:29;3.70;81.10
43894;DHT22;29556;50.846;4.442;2022-12-10T00:04:55;3.80;81.30
43894;DHT22;29556;50.846;4.442;2022-12-10T00:07:21;3.90;81.40
43894;DHT22;29556;50.846;4.442;2022-12-10T00:09:46;3.80;80.10
43894;DHT22;29556;50.846;4.442;2022-12-10T00:12:12;3.70;80.70
43894;DHT22;29556;50.846;4.442;2022-12-10T00:14:37;3.80;80.60
43894;DHT22;29556;50.846;4.442;2022-12-10T00:17:03;3.70;80.20
43894;DHT22;29556;50.846;4.442;2022-12-10T00:19:29;3.70;80.20
43894;DHT22;29556;50.846;4.442;2022-12-10T00:21:54;3.80;80.60
43894;DHT22;29556;50.846;4.442;2022-12-10T00:24:20;3.60;79.80
43894;DHT22;29556;50.846;4.442;2022-12-10T00:26:45;3.70;80.30
43894;DHT22;29556;50.846;4.442;2022-12-10T00:29:12;3.70;80.50
43894;DHT22;29556;50.846;4.442;2022-12-10T00:31:38;3.70;80.50
43894;DHT22;29556;50.846;4.442;2022-12-10T00:34:07;3.70;80.70
43894;DHT22;29556;50.846;4.442;2022-12-10T00:36:37;3.80;81.70
43894;DHT22;29556;50.846;4.442;2022-12-10T00:39:03;3.90;82.90
43894;DHT22;29556;50.846;4.442;2022-12-10T00:41:30;3.90;81.50
43894;DHT22;29556;50.846;4.442;2022-12-10T00:43:55;3.90;81.20
43894;DHT22;29556;50.846;4.442;2022-12-10T00:46:21;3.90;81.70
43894;DHT22;29556;50.846;4.442;2022-12-10T00:48:47;4.00;80.70
43894;DHT22;29556;50.846;4.442;2022-12-10T00:51:14;3.90;80.50
43894;DHT22;29556;50.846;4.442;2022-12-10T00:53:42;3.80;80.30
43894;DHT22;29556;50.846;4.442;2022-12-10T00:56:09;3.80;80.30
43894;DHT22;29556;50.846;4.442;2022-12-10T00:58:36;3.90;81.10
43894;DHT22;29556;50.846;4.442;2022-12-10T01:01:12;3.80;80.80
43894;DHT22;29556;50.846;4.442;2022-12-10T01:03:39;3.70;80.40
43894;DHT22;29556;50.846;4.442;2022-12-10T01:06:24;3.60;79.70
43894;DHT22;29556;50.846;4.442;2022-12-10T01:08:52;3.60;80.50
43894;DHT22;29556;50.846;4.442;2022-12-10T01:11:20;3.60;80.50
43894;DHT22;29556;50.846;4.442;2022-12-10T01:13:47;3.60;80.70
43894;DHT22;29556;50.846;4.442;2022-12-10T01:16:16;3.70;81.10
43894;DHT22;29556;50.846;4.442;2022-12-10T01:18:42;3.70;80.80
43894;DHT22;29556;50.846;4.442;2022-12-10T01:21:10;3.70;80.60
43894;DHT22;29556;50.846;4.442;2022-12-10T01:23:38;3.60;80.20
43894;DHT22;29556;50.846;4.442;2022-12-10T01:26:07;3.60;80.40
43894;DHT22;29556;50.846;4.442;2022-12-10T01:28:36;3.60;80.50
43894;DHT22;29556;50.846;4.442;2022-12-10T01:31:06;3.50;80.40
43894;DHT22;29556;50.846;4.442;2022-12-10T01:33:32;3.50;80.40
43894;DHT22;29556;50.846;4.442;2022-12-10T01:36:20;3.50;80.40
43894;DHT22;29556;50.846;4.442;2022-12-10T01:38:46;3.50;80.30
43894;DHT22;29556;50.846;4.442;2022-12-10T01:41:37;3.50;80.50
43894;DHT22;29556;50.846;4.442;2022-12-10T01:46:58;3.40;80.70
43894;DHT22;29556;50.846;4.442;2022-12-10T01:49:42;3.50;80.80
43894;DHT22;29556;50.846;4.442;2022-12-10T01:52:10;3.40;80.60
43894;DHT22;29556;50.846;4.442;2022-12-10T01:54:42;3.50;80.50
43894;DHT22;29556;50.846;4.442;2022-12-10T01:57:35;3.30;81.00
43894;DHT22;29556;50.846;4.442;2022-12-10T02:00:04;3.40;81.80
43894;DHT22;29556;50.846;4.442;2022-12-10T02:02:38;3.40;81.40
43894;DHT22;29556;50.846;4.442;2022-12-10T02:10:19;3.30;80.80
43894;DHT22;29556;50.846;4.442;2022-12-10T02:15:29;3.20;81.30
43894;DHT22;29556;50.846;4.442;2022-12-10T02:18:37;3.10;81.00
43894;DHT22;29556;50.846;4.442;2022-12-10T02:21:24;3.10;81.10
43894;DHT22;29556;50.846;4.442;2022-12-10T02:23:57;3.00;81.40
43894;DHT22;29556;50.846;4.442;2022-12-10T02:26:38;3.00;81.40
43894;DHT22;29556;50.846;4.442;2022-12-10T02:29:16;3.00;81.40
43894;DHT22;29556;50.846;4.442;2022-12-10T02:31:45;2.90;81.20
43894;DHT22;29556;50.846;4.442;2022-12-10T02:34:13;3.00;81.70
43894;DHT22;29556;50.846;4.442;2022-12-10T02:36:42;3.00;81.70
43894;DHT22;29556;50.846;4.442;2022-12-10T02:39:12;3.00;81.90
43894;DHT22;29556;50.846;4.442;2022-12-10T02:41:48;3.00;81.80
43894;DHT22;29556;50.846;4.442;2022-12-10T02:44:16;3.20;82.20
43894;DHT22;29556;50.846;4.442;2022-12-10T02:46:44;3.00;81.90
43894;DHT22;29556;50.846;4.442;2022-12-10T02:49:12;3.10;82.00
43894;DHT22;29556;50.846;4.442;2022-12-10T02:51:39;3.10;82.10
43894;DHT22;29556;50.846;4.442;2022-12-10T02:54:07;3.20;82.00
43894;DHT22;29556;50.846;4.442;2022-12-10T02:56:56;3.20;82.00
43894;DHT22;29556;50.846;4.442;2022-12-10T03:00:00;3.20;81.70
43894;DHT22;29556;50.846;4.442;2022-12-10T03:07:44;3.20;82.30
43894;DHT22;29556;50.846;4.442;2022-12-10T03:10:24;3.20;81.70
43894;DHT22;29556;50.846;4.442;2022-12-10T03:13:00;3.30;81.90
43894;DHT22;29556;50.846;4.442;2022-12-10T03:15:33;3.20;81.80
43894;DHT22;29556;50.846;4.442;2022-12-10T03:18:02;3.10;81.90
43894;DHT22;29556;50.846;4.442;2022-12-10T03:20:30;3.30;82.00
43894;DHT22;29556;50.846;4.442;2022-12-10T03:22:57;3.30;82.10
43894;DHT22;29556;50.846;4.442;2022-12-10T03:25:25;3.10;82.10
43894;DHT22;29556;50.846;4.442;2022-12-10T03:27:54;3.10;82.30
43894;DHT22;29556;50.846;4.442;2022-12-10T03:30:20;3.20;82.50
43894;DHT22;29556;50.846;4.442;2022-12-10T03:32:46;3.20;82.20
43894;DHT22;29556;50.846;4.442;2022-12-10T03:35:13;3.30;82.40
43894;DHT22;29556;50.846;4.442;2022-12-10T03:37:40;3.30;82.30
43894;DHT22;29556;50.846;4.442;2022-12-10T03:40:07;3.30;82.20
43894;DHT22;29556;50.846;4.442;2022-12-10T03:42:35;3.20;82.00
43894;DHT22;29556;50.846;4.442;2022-12-10T03:45:01;3.20;82.40
43894;DHT22;29556;50.846;4.442;2022-12-10T03:47:27;3.10;82.60
43894;DHT22;29556;50.846;4.442;2022-12-10T03:49:52;3.10;82.80
43894;DHT22;29556;50.846;4.442;2022-12-10T03:52:18;3.20;83.00
43894;DHT22;29556;50.846;4.442;2022-12-10T03:54:44;3.20;82.90
43894;DHT22;29556;50.846;4.442;2022-12-10T03:57:09;3.20;83.00
43894;DHT22;29556;50.846;4.442;2022-12-10T03:59:35;3.20;82.80
43894;DHT22;29556;50.846;4.442;2022-12-10T04:02:01;3.20;82.70
43894;DHT22;29556;50.846;4.442;2022-12-10T04:04:27;3.40;82.80
43894;DHT22;29556;50.846;4.442;2022-12-10T04:06:53;3.30;83.50
43894;DHT22;29556;50.846;4.442;2022-12-10T04:09:18;3.40;82.80
43894;DHT22;29556;50.846;4.442;2022-12-10T04:11:44;3.50;82.50
43894;DHT22;29556;50.846;4.442;2022-12-10T04:14:11;3.50;82.10
43894;DHT22;29556;50.846;4.442;2022-12-10T04:18:06;3.40;82.20
43894;DHT22;29556;50.846;4.442;2022-12-10T04:20:32;3.40;82.00
43894;DHT22;29556;50.846;4.442;2022-12-10T04:23:16;3.30;82.20
43894;DHT22;29556;50.846;4.442;2022-12-10T04:26:00;3.30;82.50
43894;DHT22;29556;50.846;4.442;2022-12-10T04:28:44;3.20;82.70
43894;DHT22;29556;50.846;4.442;2022-12-10T04:31:10;3.30;82.90
43894;DHT22;29556;50.846;4.442;2022-12-10T04:33:35;3.30;82.80
43894;DHT22;29556;50.846;4.442;2022-12-10T04:36:01;3.30;82.80
43894;DHT22;29556;50.846;4.442;2022-12-10T04:38:26;3.40;82.70
43894;DHT22;29556;50.846;4.442;2022-12-10T04:40:52;3.30;82.50
43894;DHT22;29556;50.846;4.442;2022-12-10T04:43:18;3.40;82.60
43894;DHT22;29556;50.846;4.442;2022-12-10T04:45:43;3.40;82.50
43894;DHT22;29556;50.846;4.442;2022-12-10T04:48:09;3.50;82.30
43894;DHT22;29556;50.846;4.442;2022-12-10T04:50:34;3.30;81.90
43894;DHT22;29556;50.846;4.442;2022-12-10T04:53:00;3.20;82.30
43894;DHT22;29556;50.846;4.442;2022-12-10T04:55:26;3.20;82.50
43894;DHT22;29556;50.846;4.442;2022-12-10T04:57:51;3.20;82.60
43894;DHT22;29556;50.846;4.442;2022-12-10T05:00:17;3.20;82.70
43894;DHT22;29556;50.846;4.442;2022-12-10T05:02:43;3.20;82.90
43894;DHT22;29556;50.846;4.442;2022-12-10T05:05:08;3.20;82.70
43894;DHT22;29556;50.846;4.442;2022-12-10T05:07:34;3.30;82.70
43894;DHT22;29556;50.846;4.442;2022-12-10T05:09:59;3.30;82.80
43894;DHT22;29556;50.846;4.442;2022-12-10T05:12:25;3.30;82.50
43894;DHT22;29556;50.846;4.442;2022-12-10T05:14:51;3.30;82.80
43894;DHT22;29556;50.846;4.442;2022-12-10T05:17:16;3.20;83.00
43894;DHT22;29556;50.846;4.442;2022-12-10T05:19:42;3.10;83.10
43894;DHT22;29556;50.846;4.442;2022-12-10T05:22:08;3.10;83.30
43894;DHT22;29556;50.846;4.442;2022-12-10T05:24:52;3.30;83.40
43894;DHT22;29556;50.846;4.442;2022-12-10T05:27:18;3.20;83.30
43894;DHT22;29556;50.846;4.442;2022-12-10T05:29:44;3.30;83.40
43894;DHT22;29556;50.846;4.442;2022-12-10T05:32:09;3.20;83.00
43894;DHT22;29556;50.846;4.442;2022-12-10T05:34:35;3.30;84.10
43894;DHT22;29556;50.846;4.442;2022-12-10T05:37:00;3.20;83.30
43894;DHT22;29556;50.846;4.442;2022-12-10T05:39:26;3.20;83.30
43894;DHT22;29556;50.846;4.442;2022-12-10T05:41:52;3.30;83.10
43894;DHT22;29556;50.846;4.442;2022-12-10T05:44:17;3.20;83.00
43894;DHT22;29556;50.846;4.442;2022-12-10T05:46:43;3.20;82.90
43894;DHT22;29556;50.846;4.442;2022-12-10T05:49:09;3.20;83.20
43894;DHT22;29556;50.846;4.442;2022-12-10T05:51:36;3.20;83.30
43894;DHT22;29556;50.846;4.442;2022-12-10T05:54:03;3.10;83.50
43894;DHT22;29556;50.846;4.442;2022-12-10T05:56:29;3.10;83.90
43894;DHT22;29556;50.846;4.442;2022-12-10T05:58:58;3.00;84.40
43894;DHT22;29556;50.846;4.442;2022-12-10T06:01:27;3.00;84.00
43894;DHT22;29556;50.846;4.442;2022-12-10T06:03:53;3.00;84.30
43894;DHT22;29556;50.846;4.442;2022-12-10T06:06:24;2.90;84.30
43894;DHT22;29556;50.846;4.442;2022-12-10T06:08:51;2.90;84.40
43894;DHT22;29556;50.846;4.442;2022-12-10T06:11:17;2.90;84.50
43894;DHT22;29556;50.846;4.442;2022-12-10T06:13:43;3.00;84.70
43894;DHT22;29556;50.846;4.442;2022-12-10T06:16:11;3.10;84.30
43894;DHT22;29556;50.846;4.442;2022-12-10T06:18:37;3.10;84.10
43894;DHT22;29556;50.846;4.442;2022-12-10T06:21:04;3.10;83.90
43894;DHT22;29556;50.846;4.442;2022-12-10T06:23:29;3.10;84.10
43894;DHT22;29556;50.846;4.442;2022-12-10T06:25:55;3.10;84.00
43894;DHT22;29556;50.846;4.442;2022-12-10T06:28:21;3.10;84.00
43894;DHT22;29556;50.846;4.442;2022-12-10T06:30:46;3.00;84.00
43894;DHT22;29556;50.846;4.442;2022-12-10T06:33:12;3.00;84.40
43894;DHT22;29556;50.846;4.442;2022-12-10T06:35:37;3.00;84.40
43894;DHT22;29556;50.846;4.442;2022-12-10T06:38:03;3.00;84.60
43894;DHT22;29556;50.846;4.442;2022-12-10T06:40:29;3.00;84.60
43894;DHT22;29556;50.846;4.442;2022-12-10T06:42:54;3.00;84.70
43894;DHT22;29556;50.846;4.442;2022-12-10T06:45:20;3.00;84.60
43894;DHT22;29556;50.846;4.442;2022-12-10T06:47:45;3.10;84.40
43894;DHT22;29556;50.846;4.442;2022-12-10T06:50:11;3.20;84.40
43894;DHT22;29556;50.846;4.442;2022-12-10T06:52:37;3.20;84.40
43894;DHT22;29556;50.846;4.442;2022-12-10T06:55:04;3.30;84.30
43894;DHT22;29556;50.846;4.442;2022-12-10T06:57:29;3.30;84.00
43894;DHT22;29556;50.846;4.442;2022-12-10T06:59:55;3.30;83.70
43894;DHT22;29556;50.846;4.442;2022-12-10T07:02:21;3.20;83.90
43894;DHT22;29556;50.846;4.442;2022-12-10T07:04:46;3.30;83.90
43894;DHT22;29556;50.846;4.442;2022-12-10T07:07:12;3.20;83.70
43894;DHT22;29556;50.846;4.442;2022-12-10T07:09:38;3.10;83.60
43894;DHT22;29556;50.846;4.442;2022-12-10T07:12:04;3.10;83.80
43894;DHT22;29556;50.846;4.442;2022-12-10T07:14:30;3.10;84.10
43894;DHT22;29556;50.846;4.442;2022-12-10T07:16:55;3.00;84.10
43894;DHT22;29556;50.846;4.442;2022-12-10T07:19:22;3.00;84.20
43894;DHT22;29556;50.846;4.442;2022-12-10T07:21:47;3.00;84.40
43894;DHT22;29556;50.846;4.442;2022-12-10T07:24:16;2.90;84.00
43894;DHT22;29556;50.846;4.442;2022-12-10T07:26:44;2.90;84.40
43894;DHT22;29556;50.846;4.442;2022-12-10T07:29:20;2.90;84.70
43894;DHT22;29556;50.846;4.442;2022-12-10T07:31:47;2.90;84.70
43894;DHT22;29556;50.846;4.442;2022-12-10T07:34:14;2.90;85.30
43894;DHT22;29556;50.846;4.442;2022-12-10T07:36:40;2.90;84.20
43894;DHT22;29556;50.846;4.442;2022-12-10T07:39:08;2.90;84.50
43894;DHT22;29556;50.846;4.442;2022-12-10T07:41:34;3.00;84.30
43894;DHT22;29556;50.846;4.442;2022-12-10T07:44:02;3.00;84.10
43894;DHT22;29556;50.846;4.442;2022-12-10T07:46:30;2.90;84.10
43894;DHT22;29556;50.846;4.442;2022-12-10T07:48:59;3.00;84.10
43894;DHT22;29556;50.846;4.442;2022-12-10T07:51:24;3.00;83.90
43894;DHT22;29556;50.846;4.442;2022-12-10T07:53:54;3.00;84.10
43894;DHT22;29556;50.846;4.442;2022-12-10T07:56:20;3.00;84.00
43894;DHT22;29556;50.846;4.442;2022-12-10T07:58:47;3.00;83.60
43894;DHT22;29556;50.846;4.442;2022-12-10T08:01:15;2.90;84.10
43894;DHT22;29556;50.846;4.442;2022-12-10T08:03:42;2.80;84.40
43894;DHT22;29556;50.846;4.442;2022-12-10T08:06:13;2.80;84.70
43894;DHT22;29556;50.846;4.442;2022-12-10T08:08:40;2.80;84.80
43894;DHT22;29556;50.846;4.442;2022-12-10T08:11:07;3.00;85.70
43894;DHT22;29556;50.846;4.442;2022-12-10T08:13:34;3.10;85.20
43894;DHT22;29556;50.846;4.442;2022-12-10T08:16:01;3.10;84.50
43894;DHT22;29556;50.846;4.442;2022-12-10T08:18:27;3.10;84.30
43894;DHT22;29556;50.846;4.442;2022-12-10T08:20:53;3.10;84.10
43894;DHT22;29556;50.846;4.442;2022-12-10T08:23:18;3.10;84.40
43894;DHT22;29556;50.846;4.442;2022-12-10T08:25:44;3.10;84.20
43894;DHT22;29556;50.846;4.442;2022-12-10T08:28:09;3.10;84.00
43894;DHT22;29556;50.846;4.442;2022-12-10T08:30:35;3.00;84.90
43894;DHT22;29556;50.846;4.442;2022-12-10T08:33:01;2.90;84.20
43894;DHT22;29556;50.846;4.442;2022-12-10T08:35:26;2.90;84.40
43894;DHT22;29556;50.846;4.442;2022-12-10T08:37:52;2.90;84.70
43894;DHT22;29556;50.846;4.442;2022-12-10T08:40:17;2.90;84.80
43894;DHT22;29556;50.846;4.442;2022-12-10T08:42:44;2.90;84.50
43894;DHT22;29556;50.846;4.442;2022-12-10T08:45:09;2.90;84.70
43894;DHT22;29556;50.846;4.442;2022-12-10T08:47:35;2.90;84.80
43894;DHT22;29556;50.846;4.442;2022-12-10T08:50:01;2.90;84.40
43894;DHT22;29556;50.846;4.442;2022-12-10T08:52:26;2.90;84.60
43894;DHT22;29556;50.846;4.442;2022-12-10T08:54:54;2.90;84.80
43894;DHT22;29556;50.846;4.442;2022-12-10T08:57:20;3.00;84.90
43894;DHT22;29556;50.846;4.442;2022-12-10T08:59:45;3.00;84.90
43894;DHT22;29556;50.846;4.442;2022-12-10T09:02:11;3.10;85.10
43894;DHT22;29556;50.846;4.442;2022-12-10T09:04:37;3.20;84.40
43894;DHT22;29556;50.846;4.442;2022-12-10T09:07:04;3.20;84.80
43894;DHT22;29556;50.846;4.442;2022-12-10T09:09:31;3.10;83.70
43894;DHT22;29556;50.846;4.442;2022-12-10T09:11:57;3.10;83.80
43894;DHT22;29556;50.846;4.442;2022-12-10T09:14:22;3.10;83.80
43894;DHT22;29556;50.846;4.442;2022-12-10T09:16:49;3.00;84.00
43894;DHT22;29556;50.846;4.442;2022-12-10T09:19:15;3.00;84.20
43894;DHT22;29556;50.846;4.442;2022-12-10T09:21:41;3.00;84.10
43894;DHT22;29556;50.846;4.442;2022-12-10T09:24:06;2.90;84.00
43894;DHT22;29556;50.846;4.442;2022-12-10T09:26:33;2.90;84.30
43894;DHT22;29556;50.846;4.442;2022-12-10T09:28:58;2.80;85.20
43894;DHT22;29556;50.846;4.442;2022-12-10T09:31:25;2.80;84.60
43894;DHT22;29556;50.846;4.442;2022-12-10T09:33:52;2.90;84.50
43894;DHT22;29556;50.846;4.442;2022-12-10T09:36:19;2.80;84.60
43894;DHT22;29556;50.846;4.442;2022-12-10T09:38:46;2.90;85.20
43894;DHT22;29556;50.846;4.442;2022-12-10T09:46:55;3.10;84.70
43894;DHT22;29556;50.846;4.442;2022-12-10T09:52:22;3.30;84.40
43894;DHT22;29556;50.846;4.442;2022-12-10T09:54:59;3.30;84.00
43894;DHT22;29556;50.846;4.442;2022-12-10T09:57:33;3.30;83.90
43894;DHT22;29556;50.846;4.442;2022-12-10T10:00:06;3.30;83.80
43894;DHT22;29556;50.846;4.442;2022-12-10T10:02:40;3.30;84.30
43894;DHT22;29556;50.846;4.442;2022-12-10T10:07:43;3.30;83.50
43894;DHT22;29556;50.846;4.442;2022-12-10T10:10:28;3.40;83.80
43894;DHT22;29556;50.846;4.442;2022-12-10T10:12:58;3.30;83.70
43894;DHT22;29556;50.846;4.442;2022-12-10T10:15:31;3.40;83.90
43894;DHT22;29556;50.846;4.442;2022-12-10T10:18:01;3.50;83.60
43894;DHT22;29556;50.846;4.442;2022-12-10T10:20:28;3.60;83.50
43894;DHT22;29556;50.846;4.442;2022-12-10T10:22:56;3.40;83.50
43894;DHT22;29556;50.846;4.442;2022-12-10T10:25:24;3.50;83.50
43894;DHT22;29556;50.846;4.442;2022-12-10T10:27:50;3.50;83.60
43894;DHT22;29556;50.846;4.442;2022-12-10T10:30:17;3.50;83.30
43894;DHT22;29556;50.846;4.442;2022-12-10T10:32:53;3.60;84.10
43894;DHT22;29556;50.846;4.442;2022-12-10T10:37:51;3.70;83.40
43894;DHT22;29556;50.846;4.442;2022-12-10T10:40:30;3.80;83.40
43894;DHT22;29556;50.846;4.442;2022-12-10T10:42:57;3.90;82.90
43894;DHT22;29556;50.846;4.442;2022-12-10T10:48:17;3.90;82.30
43894;DHT22;29556;50.846;4.442;2022-12-10T10:50:45;3.90;82.50
43894;DHT22;29556;50.846;4.442;2022-12-10T10:55:55;3.90;82.50
43894;DHT22;29556;50.846;4.442;2022-12-10T10:58:31;3.90;82.20
43894;DHT22;29556;50.846;4.442;2022-12-10T11:01:04;3.90;83.30
43894;DHT22;29556;50.846;4.442;2022-12-10T11:03:33;3.90;82.90
43894;DHT22;29556;50.846;4.442;2022-12-10T11:06:02;4.20;83.70
43894;DHT22;29556;50.846;4.442;2022-12-10T11:08:31;4.30;83.00
43894;DHT22;29556;50.846;4.442;2022-12-10T11:11:16;4.40;83.70
43894;DHT22;29556;50.846;4.442;2022-12-10T11:13:42;4.40;82.40
43894;DHT22;29556;50.846;4.442;2022-12-10T11:16:23;4.50;81.90
43894;DHT22;29556;50.846;4.442;2022-12-10T11:18:59;4.40;81.30
43894;DHT22;29556;50.846;4.442;2022-12-10T11:21:29;4.50;81.70
43894;DHT22;29556;50.846;4.442;2022-12-10T11:23:57;4.50;81.50
43894;DHT22;29556;50.846;4.442;2022-12-10T11:27:15;4.50;81.30
43894;DHT22;29556;50.846;4.442;2022-12-10T11:34:52;4.60;80.60
43894;DHT22;29556;50.846;4.442;2022-12-10T11:52:00;4.50;81.30
43894;DHT22;29556;50.846;4.442;2022-12-10T11:54:36;4.50;81.70
43894;DHT22;29556;50.846;4.442;2022-12-10T12:00:45;4.40;81.90
43894;DHT22;29556;50.846;4.442;2022-12-10T12:03:05;4.30;81.80
43894;DHT22;29556;50.846;4.442;2022-12-10T12:05:39;4.30;82.20
43894;DHT22;29556;50.846;4.442;2022-12-10T12:08:41;4.30;82.20
43894;DHT22;29556;50.846;4.442;2022-12-10T12:14:24;4.40;82.00
43894;DHT22;29556;50.846;4.442;2022-12-10T12:17:10;4.40;82.20
43894;DHT22;29556;50.846;4.442;2022-12-10T12:19:47;4.40;82.00
43894;DHT22;29556;50.846;4.442;2022-12-10T12:22:27;4.40;82.20
43894;DHT22;29556;50.846;4.442;2022-12-10T12:25:06;4.40;82.20
43894;DHT22;29556;50.846;4.442;2022-12-10T12:27:40;4.30;82.40
43894;DHT22;29556;50.846;4.442;2022-12-10T12:30:18;4.30;82.70
43894;DHT22;29556;50.846;4.442;2022-12-10T12:38:26;4.50;82.50
43894;DHT22;29556;50.846;4.442;2022-12-10T12:41:06;4.50;82.20
43894;DHT22;29556;50.846;4.442;2022-12-10T12:46:03;4.60;82.50
43894;DHT22;29556;50.846;4.442;2022-12-10T12:48:40;4.60;82.30
43894;DHT22;29556;50.846;4.442;2022-12-10T12:51:19;4.60;82.30
43894;DHT22;29556;50.846;4.442;2022-12-10T12:53:46;4.40;82.60
43894;DHT22;29556;50.846;4.442;2022-12-10T12:57:06;4.50;83.10
43894;DHT22;29556;50.846;4.442;2022-12-10T12:59:47;4.60;82.80
43894;DHT22;29556;50.846;4.442;2022-12-10T13:04:57;4.40;82.60
43894;DHT22;29556;50.846;4.442;2022-12-10T13:10:16;4.30;83.10
43894;DHT22;29556;50.846;4.442;2022-12-10T13:13:07;4.40;83.30
43894;DHT22;29556;50.846;4.442;2022-12-10T13:15:41;4.30;83.30
43894;DHT22;29556;50.846;4.442;2022-12-10T13:20:52;4.30;83.40
43894;DHT22;29556;50.846;4.442;2022-12-10T13:23:51;4.50;83.50
43894;DHT22;29556;50.846;4.442;2022-12-10T13:26:26;4.50;83.10
43894;DHT22;29556;50.846;4.442;2022-12-10T13:28:54;4.60;83.10
43894;DHT22;29556;50.846;4.442;2022-12-10T13:34:05;4.60;82.90
43894;DHT22;29556;50.846;4.442;2022-12-10T13:36:37;4.50;82.60
43894;DHT22;29556;50.846;4.442;2022-12-10T13:39:33;4.40;83.10
43894;DHT22;29556;50.846;4.442;2022-12-10T13:45:16;4.60;83.00
43894;DHT22;29556;50.846;4.442;2022-12-10T13:47:54;4.70;82.90
43894;DHT22;29556;50.846;4.442;2022-12-10T13:50:35;4.50;82.50
43894;DHT22;29556;50.846;4.442;2022-12-10T14:04:31;4.60;83.40
43894;DHT22;29556;50.846;4.442;2022-12-10T14:07:02;4.70;83.30
43894;DHT22;29556;50.846;4.442;2022-12-10T14:09:31;4.70;83.10
43894;DHT22;29556;50.846;4.442;2022-12-10T14:12:07;4.70;82.90
43894;DHT22;29556;50.846;4.442;2022-12-10T14:14:41;4.60;83.00
43894;DHT22;29556;50.846;4.442;2022-12-10T14:17:14;4.60;83.30
43894;DHT22;29556;50.846;4.442;2022-12-10T14:19:42;4.60;83.50
43894;DHT22;29556;50.846;4.442;2022-12-10T14:22:15;4.60;83.30
43894;DHT22;29556;50.846;4.442;2022-12-10T14:24:42;4.40;83.70
43894;DHT22;29556;50.846;4.442;2022-12-10T14:27:23;4.40;83.90
43894;DHT22;29556;50.846;4.442;2022-12-10T14:29:52;4.50;84.20
43894;DHT22;29556;50.846;4.442;2022-12-10T14:32:22;4.50;83.70
43894;DHT22;29556;50.846;4.442;2022-12-10T14:34:55;4.50;83.60
43894;DHT22;29556;50.846;4.442;2022-12-10T14:37:26;4.40;84.60
43894;DHT22;29556;50.846;4.442;2022-12-10T14:39:52;4.40;84.30
43894;DHT22;29556;50.846;4.442;2022-12-10T14:42:18;4.40;84.40
43894;DHT22;29556;50.846;4.442;2022-12-10T14:44:45;4.50;84.10
43894;DHT22;29556;50.846;4.442;2022-12-10T14:47:17;4.50;84.10
43894;DHT22;29556;50.846;4.442;2022-12-10T14:49:47;4.40;84.10
43894;DHT22;29556;50.846;4.442;2022-12-10T14:52:19;4.50;84.30
43894;DHT22;29556;50.846;4.442;2022-12-10T14:54:46;4.60;84.00
43894;DHT22;29556;50.846;4.442;2022-12-10T14:57:18;4.50;84.10
43894;DHT22;29556;50.846;4.442;2022-12-10T15:00:02;4.40;84.30
43894;DHT22;29556;50.846;4.442;2022-12-10T15:02:36;4.50;84.60
43894;DHT22;29556;50.846;4.442;2022-12-10T15:05:02;4.30;84.60
43894;DHT22;29556;50.846;4.442;2022-12-10T15:07:34;4.30;84.90
43894;DHT22;29556;50.846;4.442;2022-12-10T15:10:05;4.30;85.00
43894;DHT22;29556;50.846;4.442;2022-12-10T15:12:48;4.30;85.10
43894;DHT22;29556;50.846;4.442;2022-12-10T15:15:35;4.30;85.00
43894;DHT22;29556;50.846;4.442;2022-12-10T15:20:38;4.40;85.20
43894;DHT22;29556;50.846;4.442;2022-12-10T15:23:29;4.50;84.90
43894;DHT22;29556;50.846;4.442;2022-12-10T15:28:42;4.70;84.60
43894;DHT22;29556;50.846;4.442;2022-12-10T15:31:15;4.70;84.50
43894;DHT22;29556;50.846;4.442;2022-12-10T15:33:50;4.80;84.60
43894;DHT22;29556;50.846;4.442;2022-12-10T15:38:55;4.70;84.20
43894;DHT22;29556;50.846;4.442;2022-12-10T15:41:43;4.60;84.30
43894;DHT22;29556;50.846;4.442;2022-12-10T15:44:40;4.60;84.60
43894;DHT22;29556;50.846;4.442;2022-12-10T15:47:18;4.70;84.80
43894;DHT22;29556;50.846;4.442;2022-12-10T15:49:45;4.90;84.50
43894;DHT22;29556;50.846;4.442;2022-12-10T15:52:15;4.70;84.30
43894;DHT22;29556;50.846;4.442;2022-12-10T15:54:43;4.70;84.40
43894;DHT22;29556;50.846;4.442;2022-12-10T15:57:18;4.70;84.20
43894;DHT22;29556;50.846;4.442;2022-12-10T15:59:46;4.70;84.20
43894;DHT22;29556;50.846;4.442;2022-12-10T16:04:56;4.80;84.40
43894;DHT22;29556;50.846;4.442;2022-12-10T16:07:22;4.70;84.40
43894;DHT22;29556;50.846;4.442;2022-12-10T16:09:48;4.60;84.40
43894;DHT22;29556;50.846;4.442;2022-12-10T16:12:14;4.60;84.90
43894;DHT22;29556;50.846;4.442;2022-12-10T16:14:53;4.60;85.00
43894;DHT22;29556;50.846;4.442;2022-12-10T16:17:28;4.60;85.00
43894;DHT22;29556;50.846;4.442;2022-12-10T16:20:22;4.70;85.00
43894;DHT22;29556;50.846;4.442;2022-12-10T16:22:48;4.60;84.90
43894;DHT22;29556;50.846;4.442;2022-12-10T16:25:15;4.60;84.40
43894;DHT22;29556;50.846;4.442;2022-12-10T16:27:41;4.50;84.80
43894;DHT22;29556;50.846;4.442;2022-12-10T16:30:23;4.50;85.00
43894;DHT22;29556;50.846;4.442;2022-12-10T16:32:49;4.50;85.00
43894;DHT22;29556;50.846;4.442;2022-12-10T16:35:16;4.60;85.00
43894;DHT22;29556;50.846;4.442;2022-12-10T16:37:43;4.50;84.70
43894;DHT22;29556;50.846;4.442;2022-12-10T16:40:11;4.60;85.00
43894;DHT22;29556;50.846;4.442;2022-12-10T16:42:36;4.60;84.80
43894;DHT22;29556;50.846;4.442;2022-12-10T16:45:08;4.60;85.10
43894;DHT22;29556;50.846;4.442;2022-12-10T16:47:36;4.60;85.10
43894;DHT22;29556;50.846;4.442;2022-12-10T16:50:02;4.40;85.00
43894;DHT22;29556;50.846;4.442;2022-12-10T16:52:28;4.50;85.20
43894;DHT22;29556;50.846;4.442;2022-12-10T16:54:54;4.40;85.30
43894;DHT22;29556;50.846;4.442;2022-12-10T16:57:19;4.50;85.20
43894;DHT22;29556;50.846;4.442;2022-12-10T16:59:45;4.50;85.20
43894;DHT22;29556;50.846;4.442;2022-12-10T17:02:15;4.50;84.90
43894;DHT22;29556;50.846;4.442;2022-12-10T17:04:42;4.50;85.10
43894;DHT22;29556;50.846;4.442;2022-12-10T17:07:10;4.60;85.00
43894;DHT22;29556;50.846;4.442;2022-12-10T17:09:36;4.50;84.60
43894;DHT22;29556;50.846;4.442;2022-12-10T17:12:02;4.60;84.90
43894;DHT22;29556;50.846;4.442;2022-12-10T17:14:36;4.60;84.90
43894;DHT22;29556;50.846;4.442;2022-12-10T17:17:02;4.50;85.70
43894;DHT22;29556;50.846;4.442;2022-12-10T17:19:31;4.70;85.00
43894;DHT22;29556;50.846;4.442;2022-12-10T17:21:57;4.60;85.10
43894;DHT22;29556;50.846;4.442;2022-12-10T17:24:23;4.60;85.00
43894;DHT22;29556;50.846;4.442;2022-12-10T17:26:49;4.60;84.80
43894;DHT22;29556;50.846;4.442;2022-12-10T17:29:24;4.60;84.70
43894;DHT22;29556;50.846;4.442;2022-12-10T17:31:50;4.50;84.80
43894;DHT22;29556;50.846;4.442;2022-12-10T17:34:16;4.50;85.10
43894;DHT22;29556;50.846;4.442;2022-12-10T17:36:45;4.40;85.00
43894;DHT22;29556;50.846;4.442;2022-12-10T17:39:17;4.40;85.30
43894;DHT22;29556;50.846;4.442;2022-12-10T17:41:47;4.40;85.30
43894;DHT22;29556;50.846;4.442;2022-12-10T17:44:18;4.40;85.30
43894;DHT22;29556;50.846;4.442;2022-12-10T17:46:50;4.50;85.30
43894;DHT22;29556;50.846;4.442;2022-12-10T17:49:21;4.40;85.30